sensor_id;sensor_type;location;lat;lon;timestamp;P1;durP1;ratioP1;P2;durP2;ratioP2
62679;SDS011;48746;55.578;37.902;2022-07-06T00:04:39;39.83;;;30.02;;
62679;SDS011;48746;55.578;37.902;2022-07-06T00:07:05;42.92;;;31.30;;
62679;SDS011;48746;55.578;37.902;2022-07-06T00:09:32;39.60;;;30.25;;
62679;SDS011;48746;55.578;37.902;2022-07-06T00:15:05;42.42;;;30.15;;
62679;SDS011;48746;55.578;37.902;2022-07-06T00:17:31;42.40;;;30.20;;
62679;SDS011;48746;55.578;37.902;2022-07-06T00:19:58;43.13;;;30.63;;
62679;SDS011;48746;55.578;37.902;2022-07-06T00:25:31;41.65;;;29.25;;
62679;SDS011;48746;55.578;37.902;2022-07-06T00:27:57;38.28;;;28.52;;
62679;SDS011;48746;55.578;37.902;2022-07-06T00:30:24;38.85;;;28.05;;
62679;SDS011;48746;55.578;37.902;2022-07-06T00:35:57;40.50;;;28.65;;
62679;SDS011;48746;55.578;37.902;2022-07-06T00:38:24;45.33;;;29.55;;
62679;SDS011;48746;55.578;37.902;2022-07-06T00:40:50;40.55;;;29.55;;
62679;SDS011;48746;55.578;37.902;2022-07-06T00:43:16;43.30;;;30.10;;
62679;SDS011;48746;55.578;37.902;2022-07-06T00:45:43;45.47;;;32.30;;
62679;SDS011;48746;55.578;37.902;2022-07-06T00:48:10;41.60;;;31.40;;
62679;SDS011;48746;55.578;37.902;2022-07-06T00:50:38;43.75;;;30.13;;
62679;SDS011;48746;55.578;37.902;2022-07-06T00:56:11;41.17;;;30.88;;
62679;SDS011;48746;55.578;37.902;2022-07-06T00:58:38;42.60;;;30.40;;
62679;SDS011;48746;55.578;37.902;2022-07-06T01:01:07;45.25;;;30.42;;
62679;SDS011;48746;55.578;37.902;2022-07-06T01:03:33;42.28;;;31.25;;
62679;SDS011;48746;55.578;37.902;2022-07-06T01:06:00;40.38;;;29.77;;
62679;SDS011;48746;55.578;37.902;2022-07-06T01:08:26;41.35;;;29.63;;
62679;SDS011;48746;55.578;37.902;2022-07-06T01:10:57;43.47;;;31.15;;
62679;SDS011;48746;55.578;37.902;2022-07-06T01:13:23;45.25;;;30.90;;
62679;SDS011;48746;55.578;37.902;2022-07-06T01:15:50;40.97;;;30.67;;
62679;SDS011;48746;55.578;37.902;2022-07-06T01:18:16;38.28;;;30.10;;
62679;SDS011;48746;55.578;37.902;2022-07-06T01:20:43;39.45;;;29.77;;
62679;SDS011;48746;55.578;37.902;2022-07-06T01:26:17;39.80;;;29.15;;
62679;SDS011;48746;55.578;37.902;2022-07-06T01:28:45;38.88;;;29.65;;
62679;SDS011;48746;55.578;37.902;2022-07-06T01:31:17;41.58;;;29.23;;
62679;SDS011;48746;55.578;37.902;2022-07-06T01:33:44;40.60;;;29.42;;
62679;SDS011;48746;55.578;37.902;2022-07-06T01:36:11;40.88;;;29.02;;
62679;SDS011;48746;55.578;37.902;2022-07-06T01:39:10;41.80;;;29.83;;
62679;SDS011;48746;55.578;37.902;2022-07-06T01:41:32;34.70;;;27.58;;
62679;SDS011;48746;55.578;37.902;2022-07-06T01:43:59;35.35;;;28.95;;
62679;SDS011;48746;55.578;37.902;2022-07-06T01:46:25;38.38;;;28.30;;
62679;SDS011;48746;55.578;37.902;2022-07-06T01:48:52;44.90;;;32.17;;
62679;SDS011;48746;55.578;37.902;2022-07-06T01:51:22;49.15;;;29.35;;
62679;SDS011;48746;55.578;37.902;2022-07-06T01:56:18;45.03;;;29.90;;
62679;SDS011;48746;55.578;37.902;2022-07-06T01:58:47;37.03;;;29.20;;
62679;SDS011;48746;55.578;37.902;2022-07-06T02:01:18;40.63;;;29.20;;
62679;SDS011;48746;55.578;37.902;2022-07-06T02:03:45;40.03;;;28.40;;
62679;SDS011;48746;55.578;37.902;2022-07-06T02:06:12;37.15;;;28.38;;
62679;SDS011;48746;55.578;37.902;2022-07-06T02:08:38;35.75;;;26.70;;
62679;SDS011;48746;55.578;37.902;2022-07-06T02:11:09;31.42;;;25.77;;
62679;SDS011;48746;55.578;37.902;2022-07-06T02:13:38;35.05;;;27.35;;
62679;SDS011;48746;55.578;37.902;2022-07-06T02:16:26;35.03;;;28.10;;
62679;SDS011;48746;55.578;37.902;2022-07-06T02:18:52;37.20;;;29.20;;
62679;SDS011;48746;55.578;37.902;2022-07-06T02:21:21;37.17;;;27.00;;
62679;SDS011;48746;55.578;37.902;2022-07-06T02:23:48;36.95;;;27.45;;
62679;SDS011;48746;55.578;37.902;2022-07-06T02:26:14;39.63;;;29.38;;
62679;SDS011;48746;55.578;37.902;2022-07-06T02:28:43;36.47;;;29.08;;
62679;SDS011;48746;55.578;37.902;2022-07-06T02:31:14;35.75;;;28.58;;
62679;SDS011;48746;55.578;37.902;2022-07-06T02:33:42;34.92;;;27.40;;
62679;SDS011;48746;55.578;37.902;2022-07-06T02:36:11;38.08;;;28.17;;
62679;SDS011;48746;55.578;37.902;2022-07-06T02:38:38;37.05;;;27.73;;
62679;SDS011;48746;55.578;37.902;2022-07-06T02:41:07;37.00;;;29.02;;
62679;SDS011;48746;55.578;37.902;2022-07-06T02:43:34;35.40;;;27.80;;
62679;SDS011;48746;55.578;37.902;2022-07-06T02:46:00;37.38;;;28.15;;
62679;SDS011;48746;55.578;37.902;2022-07-06T02:48:27;33.67;;;27.27;;
62679;SDS011;48746;55.578;37.902;2022-07-06T02:50:53;33.70;;;27.65;;
62679;SDS011;48746;55.578;37.902;2022-07-06T02:53:20;35.45;;;28.48;;
62679;SDS011;48746;55.578;37.902;2022-07-06T02:55:50;33.72;;;26.95;;
62679;SDS011;48746;55.578;37.902;2022-07-06T02:58:16;39.78;;;28.65;;
62679;SDS011;48746;55.578;37.902;2022-07-06T03:00:42;36.75;;;28.40;;
62679;SDS011;48746;55.578;37.902;2022-07-06T03:06:16;39.25;;;29.48;;
62679;SDS011;48746;55.578;37.902;2022-07-06T03:08:42;36.28;;;29.63;;
62679;SDS011;48746;55.578;37.902;2022-07-06T03:11:11;36.25;;;28.80;;
62679;SDS011;48746;55.578;37.902;2022-07-06T03:13:38;39.33;;;27.90;;
62679;SDS011;48746;55.578;37.902;2022-07-06T03:16:05;38.05;;;28.33;;
62679;SDS011;48746;55.578;37.902;2022-07-06T03:18:31;48.88;;;28.73;;
62679;SDS011;48746;55.578;37.902;2022-07-06T03:20:58;41.40;;;27.30;;
62679;SDS011;48746;55.578;37.902;2022-07-06T03:23:25;39.97;;;29.17;;
62679;SDS011;48746;55.578;37.902;2022-07-06T03:25:51;31.02;;;26.48;;
62679;SDS011;48746;55.578;37.902;2022-07-06T03:28:17;37.08;;;26.52;;
62679;SDS011;48746;55.578;37.902;2022-07-06T03:30:44;34.38;;;26.95;;
62679;SDS011;48746;55.578;37.902;2022-07-06T03:36:18;32.72;;;26.23;;
62679;SDS011;48746;55.578;37.902;2022-07-06T03:38:46;30.38;;;26.17;;
62679;SDS011;48746;55.578;37.902;2022-07-06T03:41:13;35.55;;;26.88;;
62679;SDS011;48746;55.578;37.902;2022-07-06T03:43:39;32.55;;;27.05;;
62679;SDS011;48746;55.578;37.902;2022-07-06T03:46:05;32.85;;;26.48;;
62679;SDS011;48746;55.578;37.902;2022-07-06T03:48:32;36.75;;;28.45;;
62679;SDS011;48746;55.578;37.902;2022-07-06T03:51:03;38.97;;;28.95;;
62679;SDS011;48746;55.578;37.902;2022-07-06T03:53:30;36.57;;;30.23;;
62679;SDS011;48746;55.578;37.902;2022-07-06T03:55:56;51.92;;;30.52;;
62679;SDS011;48746;55.578;37.902;2022-07-06T03:58:41;40.88;;;29.63;;
62679;SDS011;48746;55.578;37.902;2022-07-06T04:04:15;36.90;;;28.83;;
62679;SDS011;48746;55.578;37.902;2022-07-06T04:06:44;33.65;;;28.13;;
62679;SDS011;48746;55.578;37.902;2022-07-06T04:09:10;34.88;;;27.60;;
62679;SDS011;48746;55.578;37.902;2022-07-06T04:14:45;32.20;;;27.77;;
62679;SDS011;48746;55.578;37.902;2022-07-06T04:17:11;40.00;;;30.13;;
62679;SDS011;48746;55.578;37.902;2022-07-06T04:19:56;39.30;;;28.23;;
62679;SDS011;48746;55.578;37.902;2022-07-06T04:25:29;30.17;;;26.95;;
62679;SDS011;48746;55.578;37.902;2022-07-06T04:27:58;33.35;;;26.33;;
62679;SDS011;48746;55.578;37.902;2022-07-06T04:30:25;33.90;;;26.05;;
62679;SDS011;48746;55.578;37.902;2022-07-06T04:35:59;41.53;;;26.92;;
62679;SDS011;48746;55.578;37.902;2022-07-06T04:38:33;49.30;;;28.35;;
62679;SDS011;48746;55.578;37.902;2022-07-06T04:44:11;34.65;;;27.08;;
62679;SDS011;48746;55.578;37.902;2022-07-06T04:46:38;30.60;;;25.17;;
62679;SDS011;48746;55.578;37.902;2022-07-06T04:49:04;30.45;;;25.98;;
62679;SDS011;48746;55.578;37.902;2022-07-06T04:54:37;28.00;;;24.02;;
62679;SDS011;48746;55.578;37.902;2022-07-06T04:57:03;27.45;;;24.40;;
62679;SDS011;48746;55.578;37.902;2022-07-06T04:59:31;38.42;;;24.40;;
62679;SDS011;48746;55.578;37.902;2022-07-06T05:05:06;30.40;;;25.13;;
62679;SDS011;48746;55.578;37.902;2022-07-06T05:07:32;28.45;;;25.45;;
62679;SDS011;48746;55.578;37.902;2022-07-06T05:09:59;27.92;;;24.88;;
62679;SDS011;48746;55.578;37.902;2022-07-06T05:15:36;34.03;;;25.38;;
62679;SDS011;48746;55.578;37.902;2022-07-06T05:18:02;29.42;;;25.05;;
62679;SDS011;48746;55.578;37.902;2022-07-06T05:20:28;31.27;;;24.58;;
62679;SDS011;48746;55.578;37.902;2022-07-06T05:26:03;31.98;;;24.98;;
62679;SDS011;48746;55.578;37.902;2022-07-06T05:28:31;32.30;;;24.55;;
62679;SDS011;48746;55.578;37.902;2022-07-06T05:31:01;38.35;;;27.15;;
62679;SDS011;48746;55.578;37.902;2022-07-06T05:33:27;35.05;;;25.08;;
62679;SDS011;48746;55.578;37.902;2022-07-06T05:35:54;31.75;;;26.58;;
62679;SDS011;48746;55.578;37.902;2022-07-06T05:38:24;34.15;;;25.75;;
62679;SDS011;48746;55.578;37.902;2022-07-06T05:40:52;31.00;;;25.17;;
62679;SDS011;48746;55.578;37.902;2022-07-06T05:43:18;31.73;;;25.83;;
62679;SDS011;48746;55.578;37.902;2022-07-06T05:45:45;36.15;;;25.33;;
62679;SDS011;48746;55.578;37.902;2022-07-06T05:48:13;32.42;;;23.40;;
62679;SDS011;48746;55.578;37.902;2022-07-06T05:51:02;36.05;;;24.45;;
62679;SDS011;48746;55.578;37.902;2022-07-06T05:53:30;29.75;;;25.50;;
62679;SDS011;48746;55.578;37.902;2022-07-06T05:55:56;39.42;;;27.13;;
62679;SDS011;48746;55.578;37.902;2022-07-06T05:58:24;34.35;;;26.30;;
62679;SDS011;48746;55.578;37.902;2022-07-06T06:00:52;32.53;;;25.27;;
62679;SDS011;48746;55.578;37.902;2022-07-06T06:03:19;35.15;;;26.10;;
62679;SDS011;48746;55.578;37.902;2022-07-06T06:05:47;26.05;;;23.10;;
62679;SDS011;48746;55.578;37.902;2022-07-06T06:08:16;38.53;;;28.05;;
62679;SDS011;48746;55.578;37.902;2022-07-06T06:10:43;30.85;;;24.70;;
62679;SDS011;48746;55.578;37.902;2022-07-06T06:13:12;42.40;;;26.05;;
62679;SDS011;48746;55.578;37.902;2022-07-06T06:15:39;41.63;;;27.95;;
62679;SDS011;48746;55.578;37.902;2022-07-06T06:18:05;35.85;;;28.05;;
62679;SDS011;48746;55.578;37.902;2022-07-06T06:20:31;38.53;;;28.70;;
62679;SDS011;48746;55.578;37.902;2022-07-06T06:26:04;36.25;;;29.30;;
62679;SDS011;48746;55.578;37.902;2022-07-06T06:28:30;34.90;;;27.42;;
62679;SDS011;48746;55.578;37.902;2022-07-06T06:30:59;35.13;;;28.20;;
62679;SDS011;48746;55.578;37.902;2022-07-06T06:33:26;40.38;;;26.38;;
62679;SDS011;48746;55.578;37.902;2022-07-06T06:35:52;43.65;;;26.50;;
62679;SDS011;48746;55.578;37.902;2022-07-06T06:38:19;35.72;;;23.17;;
62679;SDS011;48746;55.578;37.902;2022-07-06T06:40:46;42.95;;;24.08;;
62679;SDS011;48746;55.578;37.902;2022-07-06T06:43:12;42.28;;;22.50;;
62679;SDS011;48746;55.578;37.902;2022-07-06T06:45:54;38.70;;;21.35;;
62679;SDS011;48746;55.578;37.902;2022-07-06T06:48:20;44.03;;;20.98;;
62679;SDS011;48746;55.578;37.902;2022-07-06T06:50:46;34.75;;;19.67;;
62679;SDS011;48746;55.578;37.902;2022-07-06T06:53:12;45.47;;;22.60;;
62679;SDS011;48746;55.578;37.902;2022-07-06T06:55:39;35.00;;;20.98;;
62679;SDS011;48746;55.578;37.902;2022-07-06T06:58:05;99.20;;;22.58;;
62679;SDS011;48746;55.578;37.902;2022-07-06T07:00:31;39.30;;;21.05;;
62679;SDS011;48746;55.578;37.902;2022-07-06T07:06:05;21.85;;;16.27;;
62679;SDS011;48746;55.578;37.902;2022-07-06T07:08:30;26.90;;;19.52;;
62679;SDS011;48746;55.578;37.902;2022-07-06T07:11:00;26.48;;;20.33;;
62679;SDS011;48746;55.578;37.902;2022-07-06T07:13:26;27.00;;;19.97;;
62679;SDS011;48746;55.578;37.902;2022-07-06T07:15:52;27.17;;;20.30;;
62679;SDS011;48746;55.578;37.902;2022-07-06T07:18:18;32.70;;;18.25;;
62679;SDS011;48746;55.578;37.902;2022-07-06T07:20:44;30.17;;;19.27;;
62679;SDS011;48746;55.578;37.902;2022-07-06T07:23:11;22.83;;;18.63;;
62679;SDS011;48746;55.578;37.902;2022-07-06T07:25:37;25.90;;;18.35;;
62679;SDS011;48746;55.578;37.902;2022-07-06T07:28:05;21.98;;;18.00;;
62679;SDS011;48746;55.578;37.902;2022-07-06T07:30:31;22.90;;;17.67;;
62679;SDS011;48746;55.578;37.902;2022-07-06T07:36:04;20.48;;;18.30;;
62679;SDS011;48746;55.578;37.902;2022-07-06T07:38:31;26.30;;;23.40;;
62679;SDS011;48746;55.578;37.902;2022-07-06T07:41:00;22.05;;;19.77;;
62679;SDS011;48746;55.578;37.902;2022-07-06T07:43:26;23.13;;;20.65;;
62679;SDS011;48746;55.578;37.902;2022-07-06T07:45:53;25.77;;;23.02;;
62679;SDS011;48746;55.578;37.902;2022-07-06T07:48:21;25.67;;;22.23;;
62679;SDS011;48746;55.578;37.902;2022-07-06T07:50:50;19.15;;;17.13;;
62679;SDS011;48746;55.578;37.902;2022-07-06T07:53:17;31.30;;;17.35;;
62679;SDS011;48746;55.578;37.902;2022-07-06T07:55:43;19.48;;;15.40;;
62679;SDS011;48746;55.578;37.902;2022-07-06T07:58:09;35.00;;;16.52;;
62679;SDS011;48746;55.578;37.902;2022-07-06T08:00:35;43.38;;;17.90;;
62679;SDS011;48746;55.578;37.902;2022-07-06T08:06:10;22.63;;;15.75;;
62679;SDS011;48746;55.578;37.902;2022-07-06T08:08:36;38.50;;;17.40;;
62679;SDS011;48746;55.578;37.902;2022-07-06T08:11:05;25.45;;;15.88;;
62679;SDS011;48746;55.578;37.902;2022-07-06T08:13:33;17.45;;;15.15;;
62679;SDS011;48746;55.578;37.902;2022-07-06T08:15:59;21.65;;;15.75;;
62679;SDS011;48746;55.578;37.902;2022-07-06T08:18:25;16.75;;;15.15;;
62679;SDS011;48746;55.578;37.902;2022-07-06T08:20:52;20.83;;;16.05;;
62679;SDS011;48746;55.578;37.902;2022-07-06T08:23:18;25.63;;;16.67;;
62679;SDS011;48746;55.578;37.902;2022-07-06T08:25:44;25.85;;;16.10;;
62679;SDS011;48746;55.578;37.902;2022-07-06T08:28:11;18.10;;;16.30;;
62679;SDS011;48746;55.578;37.902;2022-07-06T08:30:37;22.42;;;16.70;;
62679;SDS011;48746;55.578;37.902;2022-07-06T08:36:10;23.38;;;17.50;;
62679;SDS011;48746;55.578;37.902;2022-07-06T08:38:36;19.90;;;15.85;;
62679;SDS011;48746;55.578;37.902;2022-07-06T08:41:05;17.27;;;15.50;;
62679;SDS011;48746;55.578;37.902;2022-07-06T08:45:59;19.80;;;16.27;;
62679;SDS011;48746;55.578;37.902;2022-07-06T08:48:25;23.77;;;17.35;;
62679;SDS011;48746;55.578;37.902;2022-07-06T08:50:53;21.40;;;16.38;;
62679;SDS011;48746;55.578;37.902;2022-07-06T08:53:20;19.13;;;17.00;;
62679;SDS011;48746;55.578;37.902;2022-07-06T08:55:47;23.45;;;17.60;;
62679;SDS011;48746;55.578;37.902;2022-07-06T08:58:14;18.92;;;16.67;;
62679;SDS011;48746;55.578;37.902;2022-07-06T09:00:40;22.13;;;16.45;;
62679;SDS011;48746;55.578;37.902;2022-07-06T09:03:11;20.00;;;16.13;;
62679;SDS011;48746;55.578;37.902;2022-07-06T09:05:39;32.38;;;16.67;;
62679;SDS011;48746;55.578;37.902;2022-07-06T09:08:07;22.45;;;17.10;;
62679;SDS011;48746;55.578;37.902;2022-07-06T09:10:33;18.50;;;16.35;;
62679;SDS011;48746;55.578;37.902;2022-07-06T09:13:05;18.65;;;16.75;;
62679;SDS011;48746;55.578;37.902;2022-07-06T09:15:33;16.75;;;15.07;;
62679;SDS011;48746;55.578;37.902;2022-07-06T09:18:01;23.75;;;16.33;;
62679;SDS011;48746;55.578;37.902;2022-07-06T09:20:28;20.73;;;15.68;;
62679;SDS011;48746;55.578;37.902;2022-07-06T09:22:58;26.20;;;15.13;;
62679;SDS011;48746;55.578;37.902;2022-07-06T09:25:26;19.70;;;16.25;;
62679;SDS011;48746;55.578;37.902;2022-07-06T09:27:53;25.05;;;16.63;;
62679;SDS011;48746;55.578;37.902;2022-07-06T09:30:23;24.30;;;16.42;;
62679;SDS011;48746;55.578;37.902;2022-07-06T09:32:53;18.92;;;15.98;;
62679;SDS011;48746;55.578;37.902;2022-07-06T09:35:40;24.70;;;21.30;;
62679;SDS011;48746;55.578;37.902;2022-07-06T09:38:08;20.30;;;16.08;;
62679;SDS011;48746;55.578;37.902;2022-07-06T09:40:36;28.20;;;16.83;;
62679;SDS011;48746;55.578;37.902;2022-07-06T09:43:13;27.95;;;16.92;;
62679;SDS011;48746;55.578;37.902;2022-07-06T09:45:45;20.00;;;16.63;;
62679;SDS011;48746;55.578;37.902;2022-07-06T09:48:16;31.30;;;17.60;;
62679;SDS011;48746;55.578;37.902;2022-07-06T09:50:45;23.20;;;16.42;;
62679;SDS011;48746;55.578;37.902;2022-07-06T09:53:13;24.30;;;16.77;;
62679;SDS011;48746;55.578;37.902;2022-07-06T09:55:44;21.40;;;16.83;;
62679;SDS011;48746;55.578;37.902;2022-07-06T09:58:11;20.52;;;18.42;;
62679;SDS011;48746;55.578;37.902;2022-07-06T10:00:37;18.83;;;16.90;;
62679;SDS011;48746;55.578;37.902;2022-07-06T10:03:07;19.25;;;16.90;;
62679;SDS011;48746;55.578;37.902;2022-07-06T10:05:36;18.80;;;16.90;;
62679;SDS011;48746;55.578;37.902;2022-07-06T10:08:07;18.15;;;16.15;;
62679;SDS011;48746;55.578;37.902;2022-07-06T10:10:37;19.98;;;15.93;;
62679;SDS011;48746;55.578;37.902;2022-07-06T10:13:09;22.75;;;16.35;;
62679;SDS011;48746;55.578;37.902;2022-07-06T10:15:37;18.13;;;16.35;;
62679;SDS011;48746;55.578;37.902;2022-07-06T10:18:04;18.33;;;16.33;;
62679;SDS011;48746;55.578;37.902;2022-07-06T10:20:33;18.65;;;16.23;;
62679;SDS011;48746;55.578;37.902;2022-07-06T10:25:32;18.67;;;15.98;;
62679;SDS011;48746;55.578;37.902;2022-07-06T10:27:59;24.77;;;16.25;;
62679;SDS011;48746;55.578;37.902;2022-07-06T10:30:25;65.57;;;18.92;;
62679;SDS011;48746;55.578;37.902;2022-07-06T10:32:56;20.17;;;16.45;;
62679;SDS011;48746;55.578;37.902;2022-07-06T10:35:24;18.83;;;17.05;;
62679;SDS011;48746;55.578;37.902;2022-07-06T10:38:04;23.88;;;17.75;;
62679;SDS011;48746;55.578;37.902;2022-07-06T10:40:35;18.92;;;16.73;;
62679;SDS011;48746;55.578;37.902;2022-07-06T10:43:33;19.27;;;17.05;;
62679;SDS011;48746;55.578;37.902;2022-07-06T10:46:09;20.97;;;17.13;;
62679;SDS011;48746;55.578;37.902;2022-07-06T10:48:41;18.80;;;16.85;;
62679;SDS011;48746;55.578;37.902;2022-07-06T10:54:11;26.63;;;17.60;;
62679;SDS011;48746;55.578;37.902;2022-07-06T10:56:48;21.17;;;16.85;;
62679;SDS011;48746;55.578;37.902;2022-07-06T10:59:22;16.13;;;14.52;;
62679;SDS011;48746;55.578;37.902;2022-07-06T11:04:56;19.70;;;14.20;;
62679;SDS011;48746;55.578;37.902;2022-07-06T11:07:23;15.27;;;13.88;;
62679;SDS011;48746;55.578;37.902;2022-07-06T11:09:56;15.98;;;14.30;;
62679;SDS011;48746;55.578;37.902;2022-07-06T11:15:46;12.02;;;10.93;;
62679;SDS011;48746;55.578;37.902;2022-07-06T11:18:13;14.13;;;11.77;;
62679;SDS011;48746;55.578;37.902;2022-07-06T11:20:39;14.70;;;11.40;;
62679;SDS011;48746;55.578;37.902;2022-07-06T11:26:13;20.02;;;12.43;;
62679;SDS011;48746;55.578;37.902;2022-07-06T11:28:39;17.65;;;11.93;;
62679;SDS011;48746;55.578;37.902;2022-07-06T11:31:08;18.38;;;12.02;;
62679;SDS011;48746;55.578;37.902;2022-07-06T11:33:34;13.27;;;11.77;;
62679;SDS011;48746;55.578;37.902;2022-07-06T11:38:44;20.15;;;13.50;;
62679;SDS011;48746;55.578;37.902;2022-07-06T11:41:14;15.65;;;14.15;;
62679;SDS011;48746;55.578;37.902;2022-07-06T11:43:44;19.08;;;13.30;;
62679;SDS011;48746;55.578;37.902;2022-07-06T11:46:25;15.00;;;13.40;;
62679;SDS011;48746;55.578;37.902;2022-07-06T11:48:53;15.05;;;13.43;;
62679;SDS011;48746;55.578;37.902;2022-07-06T11:51:24;15.20;;;13.65;;
62679;SDS011;48746;55.578;37.902;2022-07-06T11:53:52;30.70;;;14.35;;
62679;SDS011;48746;55.578;37.902;2022-07-06T11:56:20;26.70;;;14.25;;
62679;SDS011;48746;55.578;37.902;2022-07-06T11:58:54;17.88;;;13.43;;
62679;SDS011;48746;55.578;37.902;2022-07-06T12:01:28;21.45;;;14.43;;
62679;SDS011;48746;55.578;37.902;2022-07-06T12:03:57;16.45;;;14.35;;
62679;SDS011;48746;55.578;37.902;2022-07-06T12:06:25;21.58;;;14.05;;
62679;SDS011;48746;55.578;37.902;2022-07-06T12:08:58;23.15;;;13.38;;
62679;SDS011;48746;55.578;37.902;2022-07-06T12:11:30;21.58;;;13.75;;
62679;SDS011;48746;55.578;37.902;2022-07-06T12:13:58;20.20;;;12.48;;
62679;SDS011;48746;55.578;37.902;2022-07-06T12:16:30;19.75;;;12.95;;
62679;SDS011;48746;55.578;37.902;2022-07-06T12:18:56;13.30;;;10.25;;
62679;SDS011;48746;55.578;37.902;2022-07-06T12:21:26;17.60;;;9.85;;
62679;SDS011;48746;55.578;37.902;2022-07-06T12:23:52;13.45;;;9.35;;
62679;SDS011;48746;55.578;37.902;2022-07-06T12:26:23;11.02;;;8.88;;
62679;SDS011;48746;55.578;37.902;2022-07-06T12:29:10;10.38;;;7.97;;
62679;SDS011;48746;55.578;37.902;2022-07-06T12:31:44;13.45;;;7.90;;
62679;SDS011;48746;55.578;37.902;2022-07-06T12:34:14;11.00;;;9.10;;
62679;SDS011;48746;55.578;37.902;2022-07-06T12:36:44;12.95;;;8.88;;
62679;SDS011;48746;55.578;37.902;2022-07-06T12:39:12;14.07;;;8.15;;
62679;SDS011;48746;55.578;37.902;2022-07-06T12:44:24;10.50;;;8.13;;
62679;SDS011;48746;55.578;37.902;2022-07-06T12:47:12;13.82;;;9.70;;
62679;SDS011;48746;55.578;37.902;2022-07-06T12:49:38;12.32;;;9.00;;
62679;SDS011;48746;55.578;37.902;2022-07-06T12:52:12;16.35;;;10.23;;
62679;SDS011;48746;55.578;37.902;2022-07-06T12:57:14;18.08;;;11.70;;
62679;SDS011;48746;55.578;37.902;2022-07-06T12:59:45;14.13;;;8.57;;
62679;SDS011;48746;55.578;37.902;2022-07-06T13:05:27;19.15;;;7.75;;
62679;SDS011;48746;55.578;37.902;2022-07-06T13:07:54;9.73;;;8.00;;
62679;SDS011;48746;55.578;37.902;2022-07-06T13:10:23;11.00;;;7.75;;
62679;SDS011;48746;55.578;37.902;2022-07-06T13:15:56;9.68;;;7.57;;
62679;SDS011;48746;55.578;37.902;2022-07-06T13:18:22;10.52;;;8.05;;
62679;SDS011;48746;55.578;37.902;2022-07-06T13:20:52;19.73;;;7.88;;
62679;SDS011;48746;55.578;37.902;2022-07-06T13:23:18;13.38;;;8.60;;
62679;SDS011;48746;55.578;37.902;2022-07-06T13:25:45;12.55;;;9.18;;
62679;SDS011;48746;55.578;37.902;2022-07-06T13:28:11;10.38;;;8.00;;
62679;SDS011;48746;55.578;37.902;2022-07-06T13:30:37;12.05;;;8.68;;
62679;SDS011;48746;55.578;37.902;2022-07-06T13:36:10;12.32;;;8.45;;
62679;SDS011;48746;55.578;37.902;2022-07-06T13:38:36;19.50;;;10.25;;
62679;SDS011;48746;55.578;37.902;2022-07-06T13:41:02;19.95;;;9.70;;
62679;SDS011;48746;55.578;37.902;2022-07-06T13:43:29;12.75;;;9.10;;
62679;SDS011;48746;55.578;37.902;2022-07-06T13:46:05;13.05;;;9.52;;
62679;SDS011;48746;55.578;37.902;2022-07-06T13:48:32;14.30;;;9.30;;
62679;SDS011;48746;55.578;37.902;2022-07-06T13:51:02;18.42;;;9.80;;
62679;SDS011;48746;55.578;37.902;2022-07-06T13:53:28;18.98;;;9.98;;
62679;SDS011;48746;55.578;37.902;2022-07-06T13:55:57;12.48;;;10.35;;
62679;SDS011;48746;55.578;37.902;2022-07-06T13:58:23;11.68;;;10.25;;
62679;SDS011;48746;55.578;37.902;2022-07-06T14:00:48;13.38;;;9.80;;
62679;SDS011;48746;55.578;37.902;2022-07-06T14:03:15;13.32;;;10.48;;
62679;SDS011;48746;55.578;37.902;2022-07-06T14:05:41;11.77;;;10.30;;
62679;SDS011;48746;55.578;37.902;2022-07-06T14:08:07;11.07;;;9.98;;
62679;SDS011;48746;55.578;37.902;2022-07-06T14:10:34;14.07;;;10.15;;
62679;SDS011;48746;55.578;37.902;2022-07-06T14:16:08;12.82;;;8.93;;
62679;SDS011;48746;55.578;37.902;2022-07-06T14:18:34;11.57;;;10.38;;
62679;SDS011;48746;55.578;37.902;2022-07-06T14:21:03;15.10;;;10.38;;
62679;SDS011;48746;55.578;37.902;2022-07-06T14:23:30;11.57;;;9.80;;
62679;SDS011;48746;55.578;37.902;2022-07-06T14:25:56;13.50;;;10.00;;
62679;SDS011;48746;55.578;37.902;2022-07-06T14:28:23;11.98;;;9.80;;
62679;SDS011;48746;55.578;37.902;2022-07-06T14:30:52;14.27;;;10.10;;
62679;SDS011;48746;55.578;37.902;2022-07-06T14:33:19;13.23;;;9.65;;
62679;SDS011;48746;55.578;37.902;2022-07-06T14:35:47;13.57;;;10.30;;
62679;SDS011;48746;55.578;37.902;2022-07-06T14:38:15;19.13;;;11.15;;
62679;SDS011;48746;55.578;37.902;2022-07-06T14:40:41;14.70;;;10.45;;
62679;SDS011;48746;55.578;37.902;2022-07-06T14:43:08;11.52;;;10.10;;
62679;SDS011;48746;55.578;37.902;2022-07-06T14:45:35;11.60;;;10.40;;
62679;SDS011;48746;55.578;37.902;2022-07-06T14:48:02;14.60;;;10.35;;
62679;SDS011;48746;55.578;37.902;2022-07-06T14:50:28;13.13;;;10.25;;
62679;SDS011;48746;55.578;37.902;2022-07-06T14:56:01;11.77;;;9.65;;
62679;SDS011;48746;55.578;37.902;2022-07-06T14:58:27;11.65;;;9.27;;
62679;SDS011;48746;55.578;37.902;2022-07-06T15:00:57;12.52;;;9.80;;
62679;SDS011;48746;55.578;37.902;2022-07-06T15:03:23;11.25;;;8.88;;
62679;SDS011;48746;55.578;37.902;2022-07-06T15:05:49;11.85;;;8.30;;
62679;SDS011;48746;55.578;37.902;2022-07-06T15:08:16;12.13;;;8.90;;
62679;SDS011;48746;55.578;37.902;2022-07-06T15:10:44;9.82;;;8.30;;
62679;SDS011;48746;55.578;37.902;2022-07-06T15:13:10;11.63;;;8.68;;
62679;SDS011;48746;55.578;37.902;2022-07-06T15:15:37;10.15;;;8.73;;
62679;SDS011;48746;55.578;37.902;2022-07-06T15:18:04;12.35;;;8.80;;
62679;SDS011;48746;55.578;37.902;2022-07-06T15:20:30;10.43;;;8.60;;
62679;SDS011;48746;55.578;37.902;2022-07-06T15:26:04;10.45;;;8.80;;
62679;SDS011;48746;55.578;37.902;2022-07-06T15:28:31;9.77;;;8.80;;
62679;SDS011;48746;55.578;37.902;2022-07-06T15:31:00;11.10;;;8.05;;
62679;SDS011;48746;55.578;37.902;2022-07-06T15:33:26;14.00;;;8.73;;
62679;SDS011;48746;55.578;37.902;2022-07-06T15:35:53;11.23;;;8.65;;
62679;SDS011;48746;55.578;37.902;2022-07-06T15:38:19;10.55;;;9.30;;
62679;SDS011;48746;55.578;37.902;2022-07-06T15:40:48;13.85;;;9.30;;
62679;SDS011;48746;55.578;37.902;2022-07-06T15:43:21;14.82;;;9.80;;
62679;SDS011;48746;55.578;37.902;2022-07-06T15:45:47;11.25;;;9.00;;
62679;SDS011;48746;55.578;37.902;2022-07-06T15:48:20;10.52;;;9.05;;
62679;SDS011;48746;55.578;37.902;2022-07-06T15:50:46;14.43;;;9.40;;
62679;SDS011;48746;55.578;37.902;2022-07-06T15:53:13;11.43;;;9.10;;
62679;SDS011;48746;55.578;37.902;2022-07-06T15:55:40;12.23;;;9.40;;
62679;SDS011;48746;55.578;37.902;2022-07-06T15:58:06;16.05;;;11.30;;
62679;SDS011;48746;55.578;37.902;2022-07-06T16:00:33;18.95;;;10.52;;
62679;SDS011;48746;55.578;37.902;2022-07-06T16:06:07;13.18;;;9.20;;
62679;SDS011;48746;55.578;37.902;2022-07-06T16:08:35;10.10;;;9.10;;
62679;SDS011;48746;55.578;37.902;2022-07-06T16:11:01;10.80;;;9.45;;
62679;SDS011;48746;55.578;37.902;2022-07-06T16:13:27;11.98;;;8.55;;
62679;SDS011;48746;55.578;37.902;2022-07-06T16:15:54;15.50;;;9.60;;